<?xml version="1.0" encoding="UTF-8" standalone="no" ?>
<gpx xmlns="http://www.topografix.com/GPX/1/1" xmlns:xsi="http://www.w3.org/2001/XMLSchema-instance" xsi:schemaLocation="http://www.topografix.com/GPX/1/1 http://www.topografix.com/GPX/1/1/gpx.xsd" version="1.1" creator="VisuGPX - https://www.visugpx.com">
  <metadata>
    <name>sainte agnes pointe siricocca11 km 680 m mont ours 13 km 950 m</name>
    <desc><![CDATA[SAINT AGNES POINTE DE SIRICOCCA 11 KM 680 M MONT OURS 13 KM 950 M . IGN 3742 OT . ]]></desc>
  </metadata>
  <trk>
    <name><![CDATA[OR-6629598--Sainte-Agnès:ST AGNES POINTE SIRICOCCA11 KM 680 M+MT OURS13 KM 950 M]]></name>
    <trkseg>
      <trkpt lat="43.80238" lon="7.45841">
        <ele>598</ele>
        <time>2016-09-27T16:08:15Z</time>
      </trkpt>
      <trkpt lat="43.80204" lon="7.4574">
        <ele>613</ele>
        <time>2016-09-27T16:10:15Z</time>
      </trkpt>
      <trkpt lat="43.80217" lon="7.45536">
        <ele>676</ele>
        <time>2016-09-27T16:12:15Z</time>
      </trkpt>
      <trkpt lat="43.80262" lon="7.45502">
        <ele>678</ele>
        <time>2016-09-27T16:14:15Z</time>
      </trkpt>
      <trkpt lat="43.80255" lon="7.45461">
        <ele>697</ele>
        <time>2016-09-27T16:16:15Z</time>
      </trkpt>
      <trkpt lat="43.80306" lon="7.45444">
        <ele>700</ele>
        <time>2016-09-27T16:18:15Z</time>
      </trkpt>
      <trkpt lat="43.80317" lon="7.45412">
        <ele>714</ele>
        <time>2016-09-27T16:20:15Z</time>
      </trkpt>
      <trkpt lat="43.80319" lon="7.45369">
        <ele>731</ele>
        <time>2016-09-27T16:22:15Z</time>
      </trkpt>
      <trkpt lat="43.8035" lon="7.45369">
        <ele>725</ele>
        <time>2016-09-27T16:24:15Z</time>
      </trkpt>
      <trkpt lat="43.80398" lon="7.45333">
        <ele>726</ele>
        <time>2016-09-27T16:26:15Z</time>
      </trkpt>
      <trkpt lat="43.80401" lon="7.45236">
        <ele>743</ele>
        <time>2016-09-27T16:28:15Z</time>
      </trkpt>
      <trkpt lat="43.80384" lon="7.45176">
        <ele>757</ele>
        <time>2016-09-27T16:30:15Z</time>
      </trkpt>
      <trkpt lat="43.80398" lon="7.45148">
        <ele>757</ele>
        <time>2016-09-27T16:32:15Z</time>
      </trkpt>
      <trkpt lat="43.80385" lon="7.45142">
        <ele>761</ele>
        <time>2016-09-27T16:34:15Z</time>
      </trkpt>
      <trkpt lat="43.80398" lon="7.45118">
        <ele>759</ele>
        <time>2016-09-27T16:36:15Z</time>
      </trkpt>
      <trkpt lat="43.80365" lon="7.45049">
        <ele>777</ele>
        <time>2016-09-27T16:38:15Z</time>
      </trkpt>
      <trkpt lat="43.80354" lon="7.44955">
        <ele>798</ele>
        <time>2016-09-27T16:40:15Z</time>
      </trkpt>
      <trkpt lat="43.8039" lon="7.44869">
        <ele>804</ele>
        <time>2016-09-27T16:42:15Z</time>
      </trkpt>
      <trkpt lat="43.80474" lon="7.44777">
        <ele>830</ele>
        <time>2016-09-27T16:44:15Z</time>
      </trkpt>
      <trkpt lat="43.80533" lon="7.4474">
        <ele>841</ele>
        <time>2016-09-27T16:46:15Z</time>
      </trkpt>
      <trkpt lat="43.80562" lon="7.44712">
        <ele>850</ele>
        <time>2016-09-27T16:48:15Z</time>
      </trkpt>
      <trkpt lat="43.80646" lon="7.44564">
        <ele>891</ele>
        <time>2016-09-27T16:50:15Z</time>
      </trkpt>
      <trkpt lat="43.80715" lon="7.44476">
        <ele>909</ele>
        <time>2016-09-27T16:52:15Z</time>
      </trkpt>
      <trkpt lat="43.80757" lon="7.44464">
        <ele>907</ele>
        <time>2016-09-27T16:54:15Z</time>
      </trkpt>
      <trkpt lat="43.80793" lon="7.44412">
        <ele>925</ele>
        <time>2016-09-27T16:56:15Z</time>
      </trkpt>
      <trkpt lat="43.80853" lon="7.44328">
        <ele>938</ele>
        <time>2016-09-27T16:58:15Z</time>
      </trkpt>
      <trkpt lat="43.80875" lon="7.44285">
        <ele>940</ele>
        <time>2016-09-27T17:00:15Z</time>
      </trkpt>
      <trkpt lat="43.80968" lon="7.44204">
        <ele>925</ele>
        <time>2016-09-27T17:02:15Z</time>
      </trkpt>
      <trkpt lat="43.80966" lon="7.44174">
        <ele>926</ele>
        <time>2016-09-27T17:04:15Z</time>
      </trkpt>
      <trkpt lat="43.80982" lon="7.44144">
        <ele>918</ele>
        <time>2016-09-27T17:06:15Z</time>
      </trkpt>
      <trkpt lat="43.80971" lon="7.44112">
        <ele>921</ele>
        <time>2016-09-27T17:08:15Z</time>
      </trkpt>
      <trkpt lat="43.81011" lon="7.44086">
        <ele>900</ele>
        <time>2016-09-27T17:10:15Z</time>
      </trkpt>
      <trkpt lat="43.8104" lon="7.44112">
        <ele>895</ele>
        <time>2016-09-27T17:12:15Z</time>
      </trkpt>
      <trkpt lat="43.8114" lon="7.4406">
        <ele>853</ele>
        <time>2016-09-27T17:14:15Z</time>
      </trkpt>
      <trkpt lat="43.81161" lon="7.44124">
        <ele>849</ele>
        <time>2016-09-27T17:16:15Z</time>
      </trkpt>
      <trkpt lat="43.81191" lon="7.44142">
        <ele>838</ele>
        <time>2016-09-27T17:18:15Z</time>
      </trkpt>
      <trkpt lat="43.81188" lon="7.442">
        <ele>848</ele>
        <time>2016-09-27T17:20:15Z</time>
      </trkpt>
      <trkpt lat="43.81228" lon="7.44234">
        <ele>833</ele>
        <time>2016-09-27T17:22:15Z</time>
      </trkpt>
      <trkpt lat="43.81267" lon="7.44341">
        <ele>826</ele>
        <time>2016-09-27T17:24:15Z</time>
      </trkpt>
      <trkpt lat="43.81277" lon="7.44442">
        <ele>814</ele>
        <time>2016-09-27T17:26:15Z</time>
      </trkpt>
      <trkpt lat="43.8129" lon="7.44472">
        <ele>804</ele>
        <time>2016-09-27T17:28:15Z</time>
      </trkpt>
      <trkpt lat="43.8128" lon="7.44526">
        <ele>798</ele>
        <time>2016-09-27T17:30:15Z</time>
      </trkpt>
      <trkpt lat="43.81267" lon="7.44554">
        <ele>797</ele>
        <time>2016-09-27T17:32:15Z</time>
      </trkpt>
      <trkpt lat="43.81293" lon="7.44558">
        <ele>786</ele>
        <time>2016-09-27T17:34:15Z</time>
      </trkpt>
      <trkpt lat="43.81279" lon="7.44586">
        <ele>785</ele>
        <time>2016-09-27T17:36:15Z</time>
      </trkpt>
      <trkpt lat="43.81288" lon="7.4462">
        <ele>773</ele>
        <time>2016-09-27T17:38:15Z</time>
      </trkpt>
      <trkpt lat="43.81315" lon="7.44616">
        <ele>764</ele>
        <time>2016-09-27T17:40:15Z</time>
      </trkpt>
      <trkpt lat="43.8133" lon="7.44657">
        <ele>749</ele>
        <time>2016-09-27T17:42:15Z</time>
      </trkpt>
      <trkpt lat="43.81378" lon="7.44648">
        <ele>746</ele>
        <time>2016-09-27T17:44:15Z</time>
      </trkpt>
      <trkpt lat="43.8138" lon="7.44622">
        <ele>748</ele>
        <time>2016-09-27T17:46:15Z</time>
      </trkpt>
      <trkpt lat="43.8139" lon="7.44594">
        <ele>747</ele>
        <time>2016-09-27T17:48:15Z</time>
      </trkpt>
      <trkpt lat="43.81414" lon="7.44633">
        <ele>742</ele>
        <time>2016-09-27T17:50:15Z</time>
      </trkpt>
      <trkpt lat="43.81435" lon="7.44663">
        <ele>748</ele>
        <time>2016-09-27T17:52:15Z</time>
      </trkpt>
      <trkpt lat="43.81522" lon="7.44622">
        <ele>767</ele>
        <time>2016-09-27T17:54:15Z</time>
      </trkpt>
      <trkpt lat="43.81587" lon="7.44607">
        <ele>791</ele>
        <time>2016-09-27T17:56:15Z</time>
      </trkpt>
      <trkpt lat="43.8163" lon="7.44629">
        <ele>803</ele>
        <time>2016-09-27T17:58:15Z</time>
      </trkpt>
      <trkpt lat="43.81678" lon="7.44614">
        <ele>811</ele>
        <time>2016-09-27T18:00:15Z</time>
      </trkpt>
      <trkpt lat="43.81708" lon="7.44582">
        <ele>816</ele>
        <time>2016-09-27T18:02:15Z</time>
      </trkpt>
      <trkpt lat="43.81757" lon="7.44584">
        <ele>820</ele>
        <time>2016-09-27T18:04:15Z</time>
      </trkpt>
      <trkpt lat="43.81779" lon="7.44603">
        <ele>824</ele>
        <time>2016-09-27T18:06:15Z</time>
      </trkpt>
      <trkpt lat="43.81799" lon="7.44597">
        <ele>829</ele>
        <time>2016-09-27T18:08:15Z</time>
      </trkpt>
      <trkpt lat="43.81815" lon="7.44642">
        <ele>838</ele>
        <time>2016-09-27T18:10:15Z</time>
      </trkpt>
      <trkpt lat="43.8183" lon="7.44659">
        <ele>847</ele>
        <time>2016-09-27T18:12:15Z</time>
      </trkpt>
      <trkpt lat="43.81846" lon="7.44663">
        <ele>856</ele>
        <time>2016-09-27T18:14:15Z</time>
      </trkpt>
      <trkpt lat="43.81852" lon="7.44689">
        <ele>859</ele>
        <time>2016-09-27T18:16:15Z</time>
      </trkpt>
      <trkpt lat="43.8187" lon="7.44682">
        <ele>869</ele>
        <time>2016-09-27T18:18:15Z</time>
      </trkpt>
      <trkpt lat="43.81873" lon="7.44708">
        <ele>871</ele>
        <time>2016-09-27T18:20:15Z</time>
      </trkpt>
      <trkpt lat="43.81889" lon="7.44693">
        <ele>880</ele>
        <time>2016-09-27T18:22:15Z</time>
      </trkpt>
      <trkpt lat="43.81911" lon="7.44734">
        <ele>894</ele>
        <time>2016-09-27T18:24:15Z</time>
      </trkpt>
      <trkpt lat="43.82027" lon="7.44783">
        <ele>927</ele>
        <time>2016-09-27T18:26:15Z</time>
      </trkpt>
      <trkpt lat="43.82058" lon="7.44773">
        <ele>934</ele>
        <time>2016-09-27T18:28:15Z</time>
      </trkpt>
      <trkpt lat="43.82079" lon="7.44794">
        <ele>933</ele>
        <time>2016-09-27T18:30:15Z</time>
      </trkpt>
      <trkpt lat="43.82147" lon="7.44863">
        <ele>938</ele>
        <time>2016-09-27T18:32:15Z</time>
      </trkpt>
      <trkpt lat="43.82197" lon="7.44897">
        <ele>943</ele>
        <time>2016-09-27T18:34:15Z</time>
      </trkpt>
      <trkpt lat="43.82247" lon="7.44916">
        <ele>956</ele>
        <time>2016-09-27T18:36:15Z</time>
      </trkpt>
      <trkpt lat="43.82302" lon="7.45019">
        <ele>963</ele>
        <time>2016-09-27T18:38:15Z</time>
      </trkpt>
      <trkpt lat="43.82338" lon="7.45107">
        <ele>970</ele>
        <time>2016-09-27T18:40:15Z</time>
      </trkpt>
      <trkpt lat="43.82341" lon="7.45197">
        <ele>967</ele>
        <time>2016-09-27T18:42:15Z</time>
      </trkpt>
      <trkpt lat="43.82301" lon="7.45272">
        <ele>950</ele>
        <time>2016-09-27T18:44:15Z</time>
      </trkpt>
      <trkpt lat="43.82316" lon="7.45436">
        <ele>961</ele>
        <time>2016-09-27T18:46:15Z</time>
      </trkpt>
      <trkpt lat="43.82339" lon="7.45487">
        <ele>974</ele>
        <time>2016-09-27T18:48:15Z</time>
      </trkpt>
      <trkpt lat="43.82281" lon="7.45672">
        <ele>971</ele>
        <time>2016-09-27T18:50:15Z</time>
      </trkpt>
      <trkpt lat="43.82259" lon="7.45751">
        <ele>975</ele>
        <time>2016-09-27T18:52:15Z</time>
      </trkpt>
      <trkpt lat="43.82194" lon="7.4583">
        <ele>962</ele>
        <time>2016-09-27T18:54:15Z</time>
      </trkpt>
      <trkpt lat="43.82132" lon="7.4591">
        <ele>957</ele>
        <time>2016-09-27T18:56:15Z</time>
      </trkpt>
      <trkpt lat="43.82064" lon="7.45981">
        <ele>946</ele>
        <time>2016-09-27T18:58:15Z</time>
      </trkpt>
      <trkpt lat="43.82011" lon="7.45942">
        <ele>933</ele>
        <time>2016-09-27T19:00:15Z</time>
      </trkpt>
      <trkpt lat="43.81993" lon="7.4589">
        <ele>933</ele>
        <time>2016-09-27T19:02:15Z</time>
      </trkpt>
      <trkpt lat="43.8179" lon="7.45745">
        <ele>972</ele>
        <time>2016-09-27T19:04:15Z</time>
      </trkpt>
      <trkpt lat="43.81695" lon="7.45714">
        <ele>986</ele>
        <time>2016-09-27T19:06:15Z</time>
      </trkpt>
      <trkpt lat="43.8166" lon="7.45723">
        <ele>992</ele>
        <time>2016-09-27T19:08:15Z</time>
      </trkpt>
      <trkpt lat="43.81616" lon="7.45689">
        <ele>970</ele>
        <time>2016-09-27T19:10:15Z</time>
      </trkpt>
      <trkpt lat="43.81725" lon="7.4588">
        <ele>1015</ele>
        <time>2016-09-27T19:12:15Z</time>
      </trkpt>
      <trkpt lat="43.81618" lon="7.45871">
        <ele>1021</ele>
        <time>2016-09-27T19:14:15Z</time>
      </trkpt>
      <trkpt lat="43.81661" lon="7.4591">
        <ele>1034</ele>
        <time>2016-09-27T19:16:15Z</time>
      </trkpt>
      <trkpt lat="43.81623" lon="7.45946">
        <ele>1016</ele>
        <time>2016-09-27T19:18:15Z</time>
      </trkpt>
      <trkpt lat="43.81651" lon="7.45927">
        <ele>1029</ele>
        <time>2016-09-27T19:20:15Z</time>
      </trkpt>
      <trkpt lat="43.81649" lon="7.45893">
        <ele>1030</ele>
        <time>2016-09-27T19:22:15Z</time>
      </trkpt>
      <trkpt lat="43.81633" lon="7.45884">
        <ele>1026</ele>
        <time>2016-09-27T19:24:15Z</time>
      </trkpt>
      <trkpt lat="43.81637" lon="7.45869">
        <ele>1024</ele>
        <time>2016-09-27T19:26:15Z</time>
      </trkpt>
      <trkpt lat="43.81709" lon="7.45882">
        <ele>1020</ele>
        <time>2016-09-27T19:28:15Z</time>
      </trkpt>
      <trkpt lat="43.81709" lon="7.4586">
        <ele>1018</ele>
        <time>2016-09-27T19:30:15Z</time>
      </trkpt>
      <trkpt lat="43.81623" lon="7.4571">
        <ele>978</ele>
        <time>2016-09-27T19:32:15Z</time>
      </trkpt>
      <trkpt lat="43.81635" lon="7.45699">
        <ele>978</ele>
        <time>2016-09-27T19:34:15Z</time>
      </trkpt>
      <trkpt lat="43.81649" lon="7.45717">
        <ele>987</ele>
        <time>2016-09-27T19:36:15Z</time>
      </trkpt>
      <trkpt lat="43.81677" lon="7.45725">
        <ele>993</ele>
        <time>2016-09-27T19:38:15Z</time>
      </trkpt>
      <trkpt lat="43.81716" lon="7.45721">
        <ele>983</ele>
        <time>2016-09-27T19:40:15Z</time>
      </trkpt>
      <trkpt lat="43.81777" lon="7.4574">
        <ele>975</ele>
        <time>2016-09-27T19:42:15Z</time>
      </trkpt>
      <trkpt lat="43.81977" lon="7.45878">
        <ele>937</ele>
        <time>2016-09-27T19:44:15Z</time>
      </trkpt>
      <trkpt lat="43.82013" lon="7.45923">
        <ele>934</ele>
        <time>2016-09-27T19:46:15Z</time>
      </trkpt>
      <trkpt lat="43.82014" lon="7.4585">
        <ele>929</ele>
        <time>2016-09-27T19:48:15Z</time>
      </trkpt>
      <trkpt lat="43.82016" lon="7.45811">
        <ele>924</ele>
        <time>2016-09-27T19:50:15Z</time>
      </trkpt>
      <trkpt lat="43.81994" lon="7.45738">
        <ele>914</ele>
        <time>2016-09-27T19:52:15Z</time>
      </trkpt>
      <trkpt lat="43.82036" lon="7.45742">
        <ele>913</ele>
        <time>2016-09-27T19:54:15Z</time>
      </trkpt>
      <trkpt lat="43.8205" lon="7.45642">
        <ele>894</ele>
        <time>2016-09-27T19:56:15Z</time>
      </trkpt>
      <trkpt lat="43.82076" lon="7.45611">
        <ele>888</ele>
        <time>2016-09-27T19:58:15Z</time>
      </trkpt>
      <trkpt lat="43.82069" lon="7.4559">
        <ele>884</ele>
        <time>2016-09-27T20:00:15Z</time>
      </trkpt>
      <trkpt lat="43.82041" lon="7.45588">
        <ele>884</ele>
        <time>2016-09-27T20:02:15Z</time>
      </trkpt>
      <trkpt lat="43.82055" lon="7.45569">
        <ele>880</ele>
        <time>2016-09-27T20:04:15Z</time>
      </trkpt>
      <trkpt lat="43.82072" lon="7.4556">
        <ele>877</ele>
        <time>2016-09-27T20:06:15Z</time>
      </trkpt>
      <trkpt lat="43.8205" lon="7.45515">
        <ele>868</ele>
        <time>2016-09-27T20:08:15Z</time>
      </trkpt>
      <trkpt lat="43.82016" lon="7.45534">
        <ele>873</ele>
        <time>2016-09-27T20:10:15Z</time>
      </trkpt>
      <trkpt lat="43.82017" lon="7.45461">
        <ele>856</ele>
        <time>2016-09-27T20:12:15Z</time>
      </trkpt>
      <trkpt lat="43.82047" lon="7.45446">
        <ele>852</ele>
        <time>2016-09-27T20:14:15Z</time>
      </trkpt>
      <trkpt lat="43.82081" lon="7.45446">
        <ele>850</ele>
        <time>2016-09-27T20:16:15Z</time>
      </trkpt>
      <trkpt lat="43.82031" lon="7.45399">
        <ele>841</ele>
        <time>2016-09-27T20:18:15Z</time>
      </trkpt>
      <trkpt lat="43.81994" lon="7.45367">
        <ele>833</ele>
        <time>2016-09-27T20:20:15Z</time>
      </trkpt>
      <trkpt lat="43.81986" lon="7.45341">
        <ele>825</ele>
        <time>2016-09-27T20:22:15Z</time>
      </trkpt>
      <trkpt lat="43.81991" lon="7.45307">
        <ele>815</ele>
        <time>2016-09-27T20:24:15Z</time>
      </trkpt>
      <trkpt lat="43.8194" lon="7.45257">
        <ele>797</ele>
        <time>2016-09-27T20:26:15Z</time>
      </trkpt>
      <trkpt lat="43.81959" lon="7.45247">
        <ele>795</ele>
        <time>2016-09-27T20:28:15Z</time>
      </trkpt>
      <trkpt lat="43.81926" lon="7.45208">
        <ele>781</ele>
        <time>2016-09-27T20:30:15Z</time>
      </trkpt>
      <trkpt lat="43.81988" lon="7.45193">
        <ele>785</ele>
        <time>2016-09-27T20:32:15Z</time>
      </trkpt>
      <trkpt lat="43.81991" lon="7.45122">
        <ele>790</ele>
        <time>2016-09-27T20:34:15Z</time>
      </trkpt>
      <trkpt lat="43.81951" lon="7.45137">
        <ele>776</ele>
        <time>2016-09-27T20:36:15Z</time>
      </trkpt>
      <trkpt lat="43.8187" lon="7.45028">
        <ele>769</ele>
        <time>2016-09-27T20:38:15Z</time>
      </trkpt>
      <trkpt lat="43.81764" lon="7.45009">
        <ele>734</ele>
        <time>2016-09-27T20:40:15Z</time>
      </trkpt>
      <trkpt lat="43.81677" lon="7.44961">
        <ele>715</ele>
        <time>2016-09-27T20:42:15Z</time>
      </trkpt>
      <trkpt lat="43.81681" lon="7.44936">
        <ele>721</ele>
        <time>2016-09-27T20:44:15Z</time>
      </trkpt>
      <trkpt lat="43.81637" lon="7.44942">
        <ele>710</ele>
        <time>2016-09-27T20:46:15Z</time>
      </trkpt>
      <trkpt lat="43.8164" lon="7.44895">
        <ele>723</ele>
        <time>2016-09-27T20:48:15Z</time>
      </trkpt>
      <trkpt lat="43.81568" lon="7.44916">
        <ele>706</ele>
        <time>2016-09-27T20:50:15Z</time>
      </trkpt>
      <trkpt lat="43.81502" lon="7.44918">
        <ele>701</ele>
        <time>2016-09-27T20:52:15Z</time>
      </trkpt>
      <trkpt lat="43.81445" lon="7.44927">
        <ele>686</ele>
        <time>2016-09-27T20:54:15Z</time>
      </trkpt>
      <trkpt lat="43.81412" lon="7.44933">
        <ele>677</ele>
        <time>2016-09-27T20:56:15Z</time>
      </trkpt>
      <trkpt lat="43.81387" lon="7.44923">
        <ele>677</ele>
        <time>2016-09-27T20:58:15Z</time>
      </trkpt>
      <trkpt lat="43.81387" lon="7.44948">
        <ele>670</ele>
        <time>2016-09-27T21:00:15Z</time>
      </trkpt>
      <trkpt lat="43.81367" lon="7.44959">
        <ele>665</ele>
        <time>2016-09-27T21:02:15Z</time>
      </trkpt>
      <trkpt lat="43.81359" lon="7.44888">
        <ele>683</ele>
        <time>2016-09-27T21:04:15Z</time>
      </trkpt>
      <trkpt lat="43.81299" lon="7.44978">
        <ele>662</ele>
        <time>2016-09-27T21:06:15Z</time>
      </trkpt>
      <trkpt lat="43.81262" lon="7.45011">
        <ele>660</ele>
        <time>2016-09-27T21:08:15Z</time>
      </trkpt>
      <trkpt lat="43.81243" lon="7.45051">
        <ele>651</ele>
        <time>2016-09-27T21:10:15Z</time>
      </trkpt>
      <trkpt lat="43.81177" lon="7.4503">
        <ele>660</ele>
        <time>2016-09-27T21:12:15Z</time>
      </trkpt>
      <trkpt lat="43.81186" lon="7.45114">
        <ele>639</ele>
        <time>2016-09-27T21:14:15Z</time>
      </trkpt>
      <trkpt lat="43.81167" lon="7.45161">
        <ele>624</ele>
        <time>2016-09-27T21:16:15Z</time>
      </trkpt>
      <trkpt lat="43.81121" lon="7.45167">
        <ele>639</ele>
        <time>2016-09-27T21:18:15Z</time>
      </trkpt>
      <trkpt lat="43.81059" lon="7.45245">
        <ele>637</ele>
        <time>2016-09-27T21:20:15Z</time>
      </trkpt>
      <trkpt lat="43.81068" lon="7.45309">
        <ele>611</ele>
        <time>2016-09-27T21:22:15Z</time>
      </trkpt>
      <trkpt lat="43.81044" lon="7.4533">
        <ele>614</ele>
        <time>2016-09-27T21:24:15Z</time>
      </trkpt>
      <trkpt lat="43.81022" lon="7.45324">
        <ele>625</ele>
        <time>2016-09-27T21:26:15Z</time>
      </trkpt>
      <trkpt lat="43.80979" lon="7.45335">
        <ele>634</ele>
        <time>2016-09-27T21:28:15Z</time>
      </trkpt>
      <trkpt lat="43.80969" lon="7.45388">
        <ele>608</ele>
        <time>2016-09-27T21:30:15Z</time>
      </trkpt>
      <trkpt lat="43.80821" lon="7.45399">
        <ele>616</ele>
        <time>2016-09-27T21:32:15Z</time>
      </trkpt>
      <trkpt lat="43.80766" lon="7.45421">
        <ele>594</ele>
        <time>2016-09-27T21:34:15Z</time>
      </trkpt>
      <trkpt lat="43.80732" lon="7.4535">
        <ele>606</ele>
        <time>2016-09-27T21:36:15Z</time>
      </trkpt>
      <trkpt lat="43.80709" lon="7.45354">
        <ele>599</ele>
        <time>2016-09-27T21:38:15Z</time>
      </trkpt>
      <trkpt lat="43.80677" lon="7.45315">
        <ele>599</ele>
        <time>2016-09-27T21:40:15Z</time>
      </trkpt>
      <trkpt lat="43.80644" lon="7.4539">
        <ele>592</ele>
        <time>2016-09-27T21:42:15Z</time>
      </trkpt>
      <trkpt lat="43.80591" lon="7.45431">
        <ele>604</ele>
        <time>2016-09-27T21:44:15Z</time>
      </trkpt>
      <trkpt lat="43.80556" lon="7.45491">
        <ele>600</ele>
        <time>2016-09-27T21:46:15Z</time>
      </trkpt>
      <trkpt lat="43.80464" lon="7.45571">
        <ele>600</ele>
        <time>2016-09-27T21:48:15Z</time>
      </trkpt>
      <trkpt lat="43.80396" lon="7.45558">
        <ele>619</ele>
        <time>2016-09-27T21:50:15Z</time>
      </trkpt>
      <trkpt lat="43.80379" lon="7.45611">
        <ele>600</ele>
        <time>2016-09-27T21:52:15Z</time>
      </trkpt>
      <trkpt lat="43.80272" lon="7.45624">
        <ele>621</ele>
        <time>2016-09-27T21:54:15Z</time>
      </trkpt>
      <trkpt lat="43.80238" lon="7.45755">
        <ele>602</ele>
        <time>2016-09-27T21:56:15Z</time>
      </trkpt>
      <trkpt lat="43.80231" lon="7.45882">
        <ele>600</ele>
        <time>2016-09-27T21:58:15Z</time>
      </trkpt>
    </trkseg>
  </trk>
</gpx>